Time;durP1;ratioP1;P1;durP2;ratioP2;P2;SDS_P1;SDS_P2;PMS_P1;PMS_P2;Temp;Humidity;BMP_temperature;BMP_pressure;BME280_temperature;BME280_humidity;BME280_pressure;Samples;Min_cycle;Max_cycle;Signal;HPM_P1;HPM_P2
2024/01/25 00:00:24;;;;;;;0.43;0.43;;;;;;;;;;5137907;27;20499;-79
2024/01/25 00:02:51;;;;;;;0.10;0.10;;;;;;;;;;5126702;27;20051;-79
2024/01/25 00:05:20;;;;;;;0.10;0.10;;;;;;;;;;5123002;27;20506;-79
2024/01/25 00:07:49;;;;;;;0.10;0.10;;;;;;;;;;5122218;27;20048;-79
2024/01/25 00:10:16;;;;;;;0.10;0.10;;;;;;;;;;5124409;27;20070;-79
2024/01/25 00:12:43;;;;;;;0.10;0.10;;;;;;;;;;5131154;27;20848;-80
2024/01/25 00:15:10;;;;;;;0.10;0.10;;;;;;;;;;5121955;27;20094;-79
2024/01/25 00:17:36;;;;;;;0.10;0.10;;;;;;;;;;5124404;27;20047;-79
2024/01/25 00:20:04;;;;;;;0.10;0.10;;;;;;;;;;5126480;27;20036;-80
2024/01/25 00:22:30;;;;;;;0.10;0.10;;;;;;;;;;5126123;27;20052;-80
2024/01/25 00:24:57;;;;;;;0.10;0.10;;;;;;;;;;5133701;27;20055;-79
2024/01/25 00:27:24;;;;;;;0.10;0.10;;;;;;;;;;5140127;27;20047;-80
2024/01/25 00:29:50;;;;;;;0.10;0.10;;;;;;;;;;5133583;27;20055;-79
2024/01/25 00:32:17;;;;;;;0.10;0.10;;;;;;;;;;5137168;27;20044;-79
2024/01/25 00:34:44;;;;;;;0.10;0.10;;;;;;;;;;5131694;27;20151;-80
2024/01/25 00:37:10;;;;;;;1.75;1.70;;;;;;;;;;5122142;27;20150;-80
2024/01/25 00:39:37;;;;;;;0.10;0.10;;;;;;;;;;5131673;27;20141;-79
2024/01/25 00:42:05;;;;;;;0.10;0.10;;;;;;;;;;5122047;27;20040;-79
2024/01/25 00:44:31;;;;;;;0.10;0.10;;;;;;;;;;5131199;27;20057;-79
2024/01/25 00:46:58;;;;;;;0.10;0.10;;;;;;;;;;5128509;27;20486;-79
2024/01/25 00:49:25;;;;;;;0.10;0.10;;;;;;;;;;5120882;27;20052;-79
2024/01/25 00:51:55;;;;;;;0.10;0.10;;;;;;;;;;5129325;27;20121;-79
2024/01/25 00:54:22;;;;;;;0.10;0.10;;;;;;;;;;5131284;27;20048;-78
2024/01/25 00:56:52;;;;;;;0.20;0.20;;;;;;;;;;5137515;27;20056;-79
2024/01/25 00:59:19;;;;;;;0.10;0.10;;;;;;;;;;5137159;27;20106;-79
2024/01/25 01:01:49;;;;;;;0.30;0.30;;;;;;;;;;5140867;27;20044;-79
2024/01/25 01:04:16;;;;;;;0.10;0.10;;;;;;;;;;5125658;27;20055;-79
2024/01/25 01:06:43;;;;;;;0.10;0.10;;;;;;;;;;5134741;27;20135;-79
2024/01/25 01:09:10;;;;;;;0.10;0.10;;;;;;;;;;5134054;27;20040;-80
2024/01/25 01:11:36;;;;;;;0.10;0.10;;;;;;;;;;5133758;27;20535;-79
2024/01/25 01:14:03;;;;;;;0.10;0.10;;;;;;;;;;5129095;27;20051;-79
2024/01/25 01:16:32;;;;;;;0.10;0.10;;;;;;;;;;5128767;27;20948;-79
2024/01/25 01:19:05;;;;;;;0.10;0.10;;;;;;;;;;5141848;27;20047;-79
2024/01/25 01:21:33;;;;;;;0.10;0.10;;;;;;;;;;5137986;27;20044;-79
2024/01/25 01:24:00;;;;;;;2.08;1.95;;;;;;;;;;5126338;27;20208;-79
2024/01/25 01:26:26;;;;;;;0.10;0.10;;;;;;;;;;5132312;27;20062;-79
2024/01/25 01:28:52;;;;;;;0.10;0.10;;;;;;;;;;5136280;27;20106;-80
2024/01/25 01:31:19;;;;;;;0.13;0.13;;;;;;;;;;5136075;27;20068;-80
2024/01/25 01:33:46;;;;;;;0.10;0.10;;;;;;;;;;5145326;27;20032;-79
2024/01/25 01:36:13;;;;;;;0.10;0.10;;;;;;;;;;5138764;27;20051;-79
2024/01/25 01:38:40;;;;;;;0.10;0.10;;;;;;;;;;5130194;27;20055;-80
2024/01/25 01:41:06;;;;;;;0.10;0.10;;;;;;;;;;5153501;27;20054;-79
2024/01/25 01:43:32;;;;;;;0.20;0.20;;;;;;;;;;5144810;27;20083;-79
2024/01/25 01:46:03;;;;;;;0.10;0.10;;;;;;;;;;5133862;27;20529;-79
2024/01/25 01:48:30;;;;;;;0.10;0.10;;;;;;;;;;5137807;27;20032;-79
2024/01/25 01:50:56;;;;;;;0.10;0.10;;;;;;;;;;5125724;27;20105;-79
2024/01/25 01:53:23;;;;;;;0.10;0.10;;;;;;;;;;5125988;27;20078;-79
2024/01/25 01:55:50;;;;;;;0.10;0.10;;;;;;;;;;5125138;27;20044;-79
2024/01/25 01:58:17;;;;;;;0.10;0.10;;;;;;;;;;5132612;27;20052;-79
2024/01/25 02:00:45;;;;;;;0.10;0.10;;;;;;;;;;5133536;27;20104;-79
2024/01/25 02:03:12;;;;;;;0.10;0.10;;;;;;;;;;5131285;27;20058;-79
2024/01/25 02:05:38;;;;;;;0.10;0.10;;;;;;;;;;5137707;27;20067;-79
2024/01/25 02:08:05;;;;;;;0.10;0.10;;;;;;;;;;5134404;27;20062;-79
2024/01/25 02:10:32;;;;;;;0.10;0.10;;;;;;;;;;5140845;27;20055;-79
2024/01/25 02:12:58;;;;;;;0.10;0.10;;;;;;;;;;5133292;27;20036;-79
2024/01/25 02:15:25;;;;;;;0.30;0.30;;;;;;;;;;5134775;27;20139;-79
2024/01/25 02:17:51;;;;;;;0.10;0.10;;;;;;;;;;5135754;27;20040;-78
2024/01/25 02:20:18;;;;;;;0.10;0.10;;;;;;;;;;5130000;27;20056;-79
2024/01/25 02:22:45;;;;;;;0.10;0.10;;;;;;;;;;5131219;27;20173;-79
2024/01/25 02:25:11;;;;;;;0.10;0.10;;;;;;;;;;5140920;27;20051;-79
2024/01/25 02:27:38;;;;;;;0.10;0.10;;;;;;;;;;5125477;27;20105;-79
2024/01/25 02:30:06;;;;;;;0.10;0.10;;;;;;;;;;5130221;27;20087;-79
2024/01/25 02:32:33;;;;;;;0.10;0.10;;;;;;;;;;5140831;27;20055;-79
2024/01/25 02:35:00;;;;;;;0.10;0.10;;;;;;;;;;5143015;27;20044;-79
2024/01/25 02:37:26;;;;;;;0.10;0.10;;;;;;;;;;5137791;27;20078;-79
2024/01/25 02:39:54;;;;;;;0.10;0.10;;;;;;;;;;5132578;27;20852;-79
2024/01/25 02:42:20;;;;;;;0.10;0.10;;;;;;;;;;5124739;27;20063;-79
2024/01/25 02:44:47;;;;;;;0.10;0.10;;;;;;;;;;5128144;27;20060;-79
2024/01/25 02:47:15;;;;;;;0.10;0.10;;;;;;;;;;5129887;27;20093;-79
2024/01/25 02:49:41;;;;;;;0.10;0.10;;;;;;;;;;5124570;27;20090;-79
2024/01/25 02:52:08;;;;;;;0.10;0.10;;;;;;;;;;5132807;27;20843;-79
2024/01/25 02:54:36;;;;;;;0.10;0.10;;;;;;;;;;5139239;27;20860;-79
2024/01/25 02:57:03;;;;;;;0.10;0.10;;;;;;;;;;5133617;27;20643;-79
2024/01/25 02:59:30;;;;;;;0.10;0.10;;;;;;;;;;5133553;27;20028;-79
2024/01/25 03:01:56;;;;;;;0.10;0.10;;;;;;;;;;5144752;27;20043;-79
2024/01/25 03:04:23;;;;;;;0.10;0.10;;;;;;;;;;5140924;27;20105;-79
2024/01/25 03:06:50;;;;;;;0.10;0.10;;;;;;;;;;5131087;27;20458;-78
2024/01/25 03:09:17;;;;;;;0.10;0.10;;;;;;;;;;5135820;27;20051;-78
2024/01/25 03:11:43;;;;;;;0.10;0.10;;;;;;;;;;5131813;27;20056;-79
2024/01/25 03:14:10;;;;;;;0.10;0.10;;;;;;;;;;5134598;27;20149;-79
2024/01/25 03:16:36;;;;;;;0.10;0.10;;;;;;;;;;5138852;27;20044;-79
2024/01/25 03:19:02;;;;;;;0.10;0.10;;;;;;;;;;5134909;27;20048;-79
2024/01/25 03:21:29;;;;;;;0.10;0.10;;;;;;;;;;5132423;27;20047;-79
2024/01/25 03:23:56;;;;;;;3.17;2.92;;;;;;;;;;5132469;27;20154;-79
2024/01/25 03:26:22;;;;;;;0.10;0.10;;;;;;;;;;5131253;27;20516;-79
2024/01/25 03:28:48;;;;;;;0.10;0.10;;;;;;;;;;5138123;27;20117;-79
2024/01/25 03:31:15;;;;;;;0.10;0.10;;;;;;;;;;5137049;27;20062;-78
2024/01/25 03:33:42;;;;;;;0.10;0.10;;;;;;;;;;5143335;27;20060;-79
2024/01/25 03:36:09;;;;;;;0.10;0.10;;;;;;;;;;5151373;27;20104;-79
2024/01/25 03:38:35;;;;;;;0.10;0.10;;;;;;;;;;5132228;27;20042;-79
2024/01/25 03:41:02;;;;;;;0.10;0.10;;;;;;;;;;5153482;27;20055;-79
2024/01/25 03:43:28;;;;;;;0.10;0.10;;;;;;;;;;5144085;27;20051;-79
2024/01/25 03:46:08;;;;;;;0.10;0.10;;;;;;;;;;5161295;27;20576;-79
2024/01/25 03:48:34;;;;;;;0.10;0.10;;;;;;;;;;5140494;27;20044;-79
2024/01/25 03:51:01;;;;;;;0.10;0.10;;;;;;;;;;5154606;27;20035;-79
2024/01/25 03:53:27;;;;;;;0.10;0.10;;;;;;;;;;5138995;27;20055;-79
2024/01/25 03:55:53;;;;;;;0.10;0.10;;;;;;;;;;5142368;27;20043;-79
2024/01/25 03:58:20;;;;;;;0.10;0.10;;;;;;;;;;5135765;27;20052;-79
2024/01/25 04:00:47;;;;;;;0.10;0.10;;;;;;;;;;5138599;27;20040;-80
2024/01/25 04:03:13;;;;;;;0.10;0.10;;;;;;;;;;5133391;27;20056;-80
2024/01/25 04:05:40;;;;;;;0.10;0.10;;;;;;;;;;5141873;27;20069;-80
2024/01/25 04:08:07;;;;;;;0.10;0.10;;;;;;;;;;5139372;27;20052;-80
2024/01/25 04:10:33;;;;;;;0.10;0.10;;;;;;;;;;5151316;27;20432;-80
2024/01/25 04:13:04;;;;;;;0.10;0.10;;;;;;;;;;5139132;27;20056;-80
2024/01/25 04:15:31;;;;;;;0.10;0.10;;;;;;;;;;5139098;27;20067;-79
2024/01/25 04:17:57;;;;;;;0.10;0.10;;;;;;;;;;5134178;27;20808;-80
2024/01/25 04:20:24;;;;;;;0.10;0.10;;;;;;;;;;5131204;27;20052;-80
2024/01/25 04:22:51;;;;;;;0.10;0.10;;;;;;;;;;5150901;27;20059;-79
2024/01/25 04:25:17;;;;;;;0.10;0.10;;;;;;;;;;5147573;27;20143;-79
2024/01/25 04:27:44;;;;;;;0.10;0.10;;;;;;;;;;5137239;27;20056;-80
2024/01/25 04:30:10;;;;;;;0.10;0.10;;;;;;;;;;5132170;27;20063;-80
2024/01/25 04:32:37;;;;;;;0.10;0.10;;;;;;;;;;5143243;27;20048;-80
2024/01/25 04:35:03;;;;;;;0.10;0.10;;;;;;;;;;5131924;27;20051;-80
2024/01/25 04:37:30;;;;;;;0.10;0.10;;;;;;;;;;5143834;27;20052;-79
2024/01/25 04:39:57;;;;;;;0.10;0.10;;;;;;;;;;5126759;27;20040;-80
2024/01/25 04:42:23;;;;;;;0.10;0.10;;;;;;;;;;5133355;27;20820;-80
2024/01/25 04:44:50;;;;;;;0.10;0.10;;;;;;;;;;5136217;27;20131;-80
2024/01/25 04:47:16;;;;;;;0.10;0.10;;;;;;;;;;5126586;27;20051;-80
2024/01/25 04:49:43;;;;;;;0.10;0.10;;;;;;;;;;5137427;27;20046;-80
2024/01/25 04:52:10;;;;;;;0.10;0.10;;;;;;;;;;5134045;27;20049;-80
2024/01/25 04:54:36;;;;;;;0.10;0.10;;;;;;;;;;5143815;27;20052;-80
2024/01/25 04:57:06;;;;;;;0.10;0.10;;;;;;;;;;5141924;27;20036;-80
2024/01/25 04:59:33;;;;;;;0.10;0.10;;;;;;;;;;5135035;27;20456;-80
2024/01/25 05:01:59;;;;;;;0.10;0.10;;;;;;;;;;5141980;27;20055;-80
2024/01/25 05:04:27;;;;;;;0.10;0.10;;;;;;;;;;5143103;27;20058;-79
2024/01/25 05:06:54;;;;;;;0.10;0.10;;;;;;;;;;5132585;27;20047;-80
2024/01/25 05:09:21;;;;;;;0.10;0.10;;;;;;;;;;5132857;27;20059;-80
2024/01/25 05:11:48;;;;;;;0.10;0.10;;;;;;;;;;5129337;27;20131;-80
2024/01/25 05:14:14;;;;;;;0.10;0.10;;;;;;;;;;5135350;27;20876;-79
2024/01/25 05:16:41;;;;;;;0.10;0.10;;;;;;;;;;5138734;27;20059;-79
2024/01/25 05:19:07;;;;;;;0.10;0.10;;;;;;;;;;5149374;27;20055;-79
2024/01/25 05:21:34;;;;;;;0.10;0.10;;;;;;;;;;5132051;27;20066;-79
2024/01/25 05:24:00;;;;;;;0.10;0.10;;;;;;;;;;5130316;27;20066;-79
2024/01/25 05:26:30;;;;;;;0.10;0.10;;;;;;;;;;5127482;27;20057;-80
2024/01/25 05:28:56;;;;;;;0.10;0.10;;;;;;;;;;5136007;27;20056;-80
2024/01/25 05:31:23;;;;;;;0.10;0.10;;;;;;;;;;5132488;27;20040;-79
2024/01/25 05:33:50;;;;;;;0.10;0.10;;;;;;;;;;5133788;27;20058;-79
2024/01/25 05:36:16;;;;;;;0.10;0.10;;;;;;;;;;5139923;27;20994;-79
2024/01/25 05:38:43;;;;;;;0.10;0.10;;;;;;;;;;5139660;27;20701;-80
2024/01/25 05:41:09;;;;;;;0.10;0.10;;;;;;;;;;5137299;27;20502;-79
2024/01/25 05:43:36;;;;;;;0.22;0.22;;;;;;;;;;5136174;27;20044;-80
2024/01/25 05:46:02;;;;;;;0.10;0.10;;;;;;;;;;5147378;27;20060;-78
2024/01/25 05:48:30;;;;;;;0.10;0.10;;;;;;;;;;5121440;27;20058;-78
2024/01/25 05:50:57;;;;;;;0.10;0.10;;;;;;;;;;5149198;27;20048;-78
2024/01/25 05:53:23;;;;;;;0.50;0.50;;;;;;;;;;5129145;27;20052;-79
2024/01/25 05:55:50;;;;;;;0.10;0.10;;;;;;;;;;5134658;27;20548;-79
2024/01/25 05:58:17;;;;;;;0.10;0.10;;;;;;;;;;5141768;27;20410;-79
2024/01/25 06:00:43;;;;;;;0.10;0.10;;;;;;;;;;5135049;27;20055;-79
2024/01/25 06:03:10;;;;;;;0.10;0.10;;;;;;;;;;5132689;27;20052;-79
2024/01/25 06:05:37;;;;;;;0.10;0.10;;;;;;;;;;5139287;27;20044;-79
2024/01/25 06:08:04;;;;;;;0.10;0.10;;;;;;;;;;5133858;27;20135;-79
2024/01/25 06:10:30;;;;;;;0.10;0.10;;;;;;;;;;5130935;27;20789;-79
2024/01/25 06:13:00;;;;;;;0.10;0.10;;;;;;;;;;5127594;27;20096;-79
2024/01/25 06:15:29;;;;;;;0.10;0.10;;;;;;;;;;5126097;27;20589;-79
2024/01/25 06:17:56;;;;;;;0.10;0.10;;;;;;;;;;5130015;27;20047;-79
2024/01/25 06:20:22;;;;;;;0.10;0.10;;;;;;;;;;5134457;27;20056;-79
2024/01/25 06:22:49;;;;;;;0.10;0.10;;;;;;;;;;5143694;27;20146;-79
2024/01/25 06:25:15;;;;;;;0.10;0.10;;;;;;;;;;5129797;27;20060;-78
2024/01/25 06:27:42;;;;;;;0.10;0.10;;;;;;;;;;5124945;27;20051;-79
2024/01/25 06:30:09;;;;;;;0.10;0.10;;;;;;;;;;5134720;27;20083;-78
2024/01/25 06:32:35;;;;;;;0.10;0.10;;;;;;;;;;5140400;27;21008;-78
2024/01/25 06:35:03;;;;;;;0.10;0.10;;;;;;;;;;5122729;27;21021;-78
2024/01/25 06:37:30;;;;;;;0.10;0.10;;;;;;;;;;5135871;27;20047;-79
2024/01/25 06:39:56;;;;;;;0.10;0.10;;;;;;;;;;5137825;27;20064;-79
2024/01/25 06:42:23;;;;;;;0.10;0.10;;;;;;;;;;5138279;27;20071;-79
2024/01/25 06:44:49;;;;;;;0.10;0.10;;;;;;;;;;5127657;27;20052;-79
2024/01/25 06:47:16;;;;;;;0.10;0.10;;;;;;;;;;5140119;27;20512;-79
2024/01/25 06:49:47;;;;;;;0.10;0.10;;;;;;;;;;5134360;27;20032;-79
2024/01/25 06:52:15;;;;;;;0.10;0.10;;;;;;;;;;5141256;27;20588;-79
2024/01/25 06:54:41;;;;;;;0.10;0.10;;;;;;;;;;5135380;27;20058;-79
2024/01/25 06:57:08;;;;;;;0.10;0.10;;;;;;;;;;5136758;27;20048;-79
2024/01/25 06:59:34;;;;;;;0.10;0.10;;;;;;;;;;5143219;27;20051;-79
2024/01/25 07:02:02;;;;;;;0.10;0.10;;;;;;;;;;5136037;27;20058;-79
2024/01/25 07:04:29;;;;;;;0.10;0.10;;;;;;;;;;5129961;27;20056;-79
2024/01/25 07:06:56;;;;;;;0.10;0.10;;;;;;;;;;5127373;27;20052;-79
2024/01/25 07:09:23;;;;;;;0.10;0.10;;;;;;;;;;5140227;27;20036;-79
2024/01/25 07:11:50;;;;;;;0.10;0.10;;;;;;;;;;5126950;27;20445;-79
2024/01/25 07:14:17;;;;;;;0.50;0.50;;;;;;;;;;5123617;27;20078;-79
2024/01/25 07:16:43;;;;;;;0.10;0.10;;;;;;;;;;5122446;27;20043;-79
2024/01/25 07:19:10;;;;;;;0.10;0.10;;;;;;;;;;5131051;27;20036;-79
2024/01/25 07:21:37;;;;;;;0.10;0.10;;;;;;;;;;5132452;27;20162;-79
2024/01/25 07:24:04;;;;;;;0.10;0.10;;;;;;;;;;5144552;27;20036;-79
2024/01/25 07:26:33;;;;;;;0.10;0.10;;;;;;;;;;5134858;27;20047;-80
2024/01/25 07:28:59;;;;;;;0.10;0.10;;;;;;;;;;5147889;27;20077;-79
2024/01/25 07:31:26;;;;;;;0.10;0.10;;;;;;;;;;5151685;27;20040;-80
2024/01/25 07:33:53;;;;;;;0.10;0.10;;;;;;;;;;5125817;27;20048;-79
2024/01/25 07:36:20;;;;;;;0.32;0.32;;;;;;;;;;5121839;27;20043;-79
2024/01/25 07:38:50;;;;;;;0.10;0.10;;;;;;;;;;5128393;27;20127;-80
2024/01/25 07:41:17;;;;;;;0.10;0.10;;;;;;;;;;5131656;27;20510;-80
2024/01/25 07:43:44;;;;;;;0.10;0.10;;;;;;;;;;5134419;27;20981;-80
2024/01/25 07:46:11;;;;;;;0.10;0.10;;;;;;;;;;5132753;27;20032;-79
2024/01/25 07:48:37;;;;;;;0.45;0.45;;;;;;;;;;5122881;27;20055;-80
2024/01/25 07:51:10;;;;;;;0.10;0.10;;;;;;;;;;5139029;27;20044;-79
2024/01/25 07:53:37;;;;;;;0.10;0.10;;;;;;;;;;5140975;27;20056;-79
2024/01/25 07:56:03;;;;;;;0.10;0.10;;;;;;;;;;5117631;27;20040;-79
2024/01/25 07:58:30;;;;;;;0.10;0.10;;;;;;;;;;5135820;27;20087;-79
2024/01/25 08:00:57;;;;;;;1.75;1.63;;;;;;;;;;5124044;27;20516;-79
2024/01/25 08:03:23;;;;;;;0.10;0.10;;;;;;;;;;5126148;27;20051;-79
2024/01/25 08:05:51;;;;;;;0.10;0.10;;;;;;;;;;5129265;27;20060;-78
2024/01/25 08:08:18;;;;;;;0.10;0.10;;;;;;;;;;5124676;27;20055;-78
2024/01/25 08:10:45;;;;;;;0.10;0.10;;;;;;;;;;5135194;27;20126;-79
2024/01/25 08:13:13;;;;;;;0.10;0.10;;;;;;;;;;5137405;27;20071;-79
2024/01/25 08:15:39;;;;;;;0.10;0.10;;;;;;;;;;5129684;27;20063;-78
2024/01/25 08:18:06;;;;;;;0.10;0.10;;;;;;;;;;5126726;27;20095;-79
2024/01/25 08:20:32;;;;;;;0.10;0.10;;;;;;;;;;5140275;27;20126;-79
2024/01/25 08:22:59;;;;;;;0.10;0.10;;;;;;;;;;5130922;27;20035;-79
2024/01/25 08:25:26;;;;;;;0.10;0.10;;;;;;;;;;5138105;27;20157;-78
2024/01/25 08:27:53;;;;;;;0.10;0.10;;;;;;;;;;5123872;27;20154;-79
2024/01/25 08:30:19;;;;;;;0.10;0.10;;;;;;;;;;5125233;27;20063;-79
2024/01/25 08:32:46;;;;;;;0.10;0.10;;;;;;;;;;5129256;27;20061;-79
2024/01/25 08:35:12;;;;;;;0.10;0.10;;;;;;;;;;5133730;27;20086;-78
2024/01/25 08:37:39;;;;;;;0.10;0.10;;;;;;;;;;5125174;22;20855;-77
2024/01/25 08:40:06;;;;;;;0.10;0.10;;;;;;;;;;5114064;27;20055;-77
2024/01/25 08:42:33;;;;;;;0.10;0.10;;;;;;;;;;5105206;27;20468;-76
2024/01/25 08:44:59;;;;;;;0.10;0.10;;;;;;;;;;5102115;28;20494;-77
2024/01/25 08:47:26;;;;;;;0.10;0.10;;;;;;;;;;5101450;27;20102;-77
2024/01/25 08:49:52;;;;;;;0.10;0.10;;;;;;;;;;5094464;28;20106;-76
2024/01/25 08:52:19;;;;;;;0.13;0.13;;;;;;;;;;5102796;27;20129;-77
2024/01/25 08:54:45;;;;;;;0.10;0.10;;;;;;;;;;5088086;28;20502;-77
2024/01/25 08:57:12;;;;;;;0.17;0.17;;;;;;;;;;5103762;28;20052;-77
2024/01/25 08:59:38;;;;;;;0.10;0.10;;;;;;;;;;5096224;27;20052;-77
2024/01/25 09:02:05;;;;;;;0.10;0.10;;;;;;;;;;5102653;28;20047;-77
2024/01/25 09:04:32;;;;;;;0.38;0.38;;;;;;;;;;5089303;27;20517;-77
2024/01/25 09:06:59;;;;;;;0.10;0.10;;;;;;;;;;5103274;28;21008;-77
2024/01/25 09:09:26;;;;;;;0.10;0.10;;;;;;;;;;5099418;27;20063;-77
2024/01/25 09:11:52;;;;;;;0.10;0.10;;;;;;;;;;5102533;27;20055;-77
2024/01/25 09:14:20;;;;;;;0.10;0.10;;;;;;;;;;5099609;28;20052;-77
2024/01/25 09:16:47;;;;;;;0.10;0.10;;;;;;;;;;5106039;27;20044;-77
2024/01/25 09:19:13;;;;;;;2.78;2.08;;;;;;;;;;5101204;27;20053;-76
2024/01/25 09:21:42;;;;;;;0.10;0.10;;;;;;;;;;5102317;27;20049;-77
2024/01/25 09:24:08;;;;;;;0.10;0.10;;;;;;;;;;5102243;28;20485;-77
2024/01/25 09:26:34;;;;;;;0.10;0.10;;;;;;;;;;5108150;28;20051;-77
2024/01/25 09:29:01;;;;;;;0.10;0.10;;;;;;;;;;5101444;28;20055;-77
2024/01/25 09:31:28;;;;;;;0.10;0.10;;;;;;;;;;5103891;27;20407;-77
2024/01/25 09:33:55;;;;;;;0.10;0.10;;;;;;;;;;5109507;28;20052;-76
2024/01/25 09:36:22;;;;;;;0.10;0.10;;;;;;;;;;5111581;28;20056;-77
2024/01/25 09:38:48;;;;;;;0.10;0.10;;;;;;;;;;5105972;28;20056;-78
2024/01/25 09:41:15;;;;;;;0.10;0.10;;;;;;;;;;5106380;28;20131;-76
2024/01/25 09:43:41;;;;;;;0.10;0.10;;;;;;;;;;5102570;27;20047;-77
2024/01/25 09:46:11;;;;;;;0.10;0.10;;;;;;;;;;5105366;28;20054;-77
2024/01/25 09:48:38;;;;;;;0.10;0.10;;;;;;;;;;5091855;27;20056;-77
2024/01/25 09:51:05;;;;;;;0.10;0.10;;;;;;;;;;5100155;28;20080;-77
2024/01/25 09:53:33;;;;;;;0.10;0.10;;;;;;;;;;5111439;27;20051;-77
2024/01/25 09:56:05;;;;;;;0.10;0.10;;;;;;;;;;5111549;27;20055;-76
2024/01/25 09:58:36;;;;;;;0.10;0.10;;;;;;;;;;5100635;27;20074;-77
2024/01/25 10:01:03;;;;;;;0.10;0.10;;;;;;;;;;5104044;28;20082;-77
2024/01/25 10:03:30;;;;;;;0.10;0.10;;;;;;;;;;5109349;27;20135;-81
2024/01/25 10:05:56;;;;;;;0.10;0.10;;;;;;;;;;5110556;27;20822;-80
2024/01/25 10:08:23;;;;;;;0.10;0.10;;;;;;;;;;5113963;28;20058;-80
2024/01/25 10:10:53;;;;;;;0.10;0.10;;;;;;;;;;5117556;27;20041;-80
2024/01/25 10:13:19;;;;;;;0.10;0.10;;;;;;;;;;5111759;28;20056;-80
2024/01/25 10:15:47;;;;;;;0.10;0.10;;;;;;;;;;5114177;27;20091;-81
2024/01/25 10:18:13;;;;;;;0.10;0.10;;;;;;;;;;5109628;28;20060;-80
2024/01/25 10:20:55;;;;;;;0.10;0.10;;;;;;;;;;5105743;28;20036;-80
2024/01/25 10:23:22;;;;;;;0.10;0.10;;;;;;;;;;5114264;28;20514;-80
2024/01/25 10:25:49;;;;;;;0.10;0.10;;;;;;;;;;5101261;28;20056;-81
2024/01/25 10:28:15;;;;;;;0.10;0.10;;;;;;;;;;5106274;27;20052;-79
2024/01/25 10:30:42;;;;;;;0.77;0.77;;;;;;;;;;5110947;28;20074;-80
2024/01/25 10:33:10;;;;;;;2.90;2.65;;;;;;;;;;5124484;27;20063;-80
2024/01/25 10:35:37;;;;;;;0.10;0.10;;;;;;;;;;5121363;28;20097;-80
2024/01/25 10:38:04;;;;;;;0.10;0.10;;;;;;;;;;5099738;27;20048;-80
2024/01/25 10:40:31;;;;;;;0.10;0.10;;;;;;;;;;5099185;28;20514;-80
2024/01/25 10:42:57;;;;;;;0.10;0.10;;;;;;;;;;5121754;27;20044;-79
2024/01/25 10:45:24;;;;;;;0.10;0.10;;;;;;;;;;5112923;28;20425;-80
2024/01/25 10:47:51;;;;;;;0.10;0.10;;;;;;;;;;5118146;28;20055;-80
2024/01/25 10:50:17;;;;;;;0.10;0.10;;;;;;;;;;5116083;27;20094;-80
2024/01/25 10:52:45;;;;;;;0.10;0.10;;;;;;;;;;5113116;27;20059;-81
2024/01/25 10:55:11;;;;;;;0.10;0.10;;;;;;;;;;5109368;27;20052;-82
2024/01/25 10:57:39;;;;;;;0.10;0.10;;;;;;;;;;5101605;28;20044;-81
2024/01/25 11:00:07;;;;;;;0.10;0.10;;;;;;;;;;5100132;28;20144;-80
2024/01/25 11:02:37;;;;;;;0.10;0.10;;;;;;;;;;5102317;27;20776;-82
2024/01/25 11:05:11;;;;;;;0.20;0.20;;;;;;;;;;5095162;28;20116;-82
2024/01/25 11:07:42;;;;;;;0.10;0.10;;;;;;;;;;5105659;28;20171;-82
2024/01/25 11:10:15;;;;;;;0.10;0.10;;;;;;;;;;5107009;28;20052;-82
2024/01/25 11:12:50;;;;;;;0.10;0.10;;;;;;;;;;5109955;28;20067;-82
2024/01/25 11:15:18;;;;;;;0.10;0.10;;;;;;;;;;5104140;28;20080;-81
2024/01/25 11:17:50;;;;;;;1.45;1.35;;;;;;;;;;5113812;28;20053;-82
2024/01/25 11:20:19;;;;;;;0.20;0.20;;;;;;;;;;5128810;27;20547;-81
2024/01/25 11:22:46;;;;;;;1.45;1.35;;;;;;;;;;5108059;27;20087;-81
2024/01/25 11:25:17;;;;;;;0.10;0.10;;;;;;;;;;5100122;28;20052;-81
2024/01/25 11:27:43;;;;;;;0.10;0.10;;;;;;;;;;5096607;28;20140;-82
2024/01/25 11:30:10;;;;;;;0.22;0.22;;;;;;;;;;5106825;28;20105;-82
2024/01/25 11:32:37;;;;;;;0.10;0.10;;;;;;;;;;5103274;27;20566;-82
2024/01/25 11:35:03;;;;;;;0.10;0.10;;;;;;;;;;5116923;27;20143;-82
2024/01/25 11:37:30;;;;;;;0.10;0.10;;;;;;;;;;5111243;27;20061;-82
2024/01/25 11:39:58;;;;;;;0.10;0.10;;;;;;;;;;5106387;27;20052;-82
2024/01/25 11:42:24;;;;;;;0.10;0.10;;;;;;;;;;5098425;28;20071;-81
2024/01/25 11:44:51;;;;;;;0.57;0.57;;;;;;;;;;5106944;27;20056;-82
2024/01/25 11:47:19;;;;;;;0.10;0.10;;;;;;;;;;5105575;27;20048;-81
2024/01/25 11:49:45;;;;;;;0.10;0.10;;;;;;;;;;5107927;28;20056;-82
2024/01/25 11:52:13;;;;;;;0.10;0.10;;;;;;;;;;5099934;27;20070;-82
2024/01/25 11:54:40;;;;;;;0.25;0.25;;;;;;;;;;5104512;27;20043;-81
2024/01/25 11:57:06;;;;;;;0.20;0.20;;;;;;;;;;5109846;27;20482;-82
2024/01/25 11:59:33;;;;;;;0.10;0.10;;;;;;;;;;5108906;27;20059;-81
2024/01/25 12:02:01;;;;;;;0.10;0.10;;;;;;;;;;5103709;28;20044;-82
2024/01/25 12:04:28;;;;;;;0.15;0.15;;;;;;;;;;5088761;28;20576;-81
2024/01/25 12:06:55;;;;;;;1.38;1.27;;;;;;;;;;5088819;28;20053;-81
2024/01/25 12:09:21;;;;;;;0.20;0.20;;;;;;;;;;5094147;28;20151;-81
2024/01/25 12:11:51;;;;;;;0.10;0.10;;;;;;;;;;5100706;28;20083;-81
2024/01/25 12:14:17;;;;;;;0.10;0.10;;;;;;;;;;5095439;28;20060;-81
2024/01/25 12:16:44;;;;;;;0.10;0.10;;;;;;;;;;5093475;28;20059;-81
2024/01/25 12:19:10;;;;;;;0.10;0.10;;;;;;;;;;5096086;28;20080;-81
2024/01/25 12:21:37;;;;;;;0.10;0.10;;;;;;;;;;5103331;28;20115;-81
2024/01/25 12:24:07;;;;;;;0.10;0.10;;;;;;;;;;5097384;28;20738;-81
2024/01/25 12:26:35;;;;;;;0.15;0.15;;;;;;;;;;5087241;28;20056;-81
2024/01/25 12:29:02;;;;;;;0.10;0.10;;;;;;;;;;5087454;28;20140;-81
2024/01/25 12:31:29;;;;;;;0.10;0.10;;;;;;;;;;5096202;28;20048;-81
2024/01/25 12:33:56;;;;;;;0.20;0.20;;;;;;;;;;5094682;27;20052;-81
2024/01/25 12:36:22;;;;;;;0.10;0.10;;;;;;;;;;5093425;28;20052;-81
2024/01/25 12:38:49;;;;;;;0.10;0.10;;;;;;;;;;5105978;28;20139;-81
2024/01/25 12:41:16;;;;;;;0.47;0.47;;;;;;;;;;5107979;27;20048;-81
2024/01/25 12:43:43;;;;;;;0.10;0.10;;;;;;;;;;5105638;28;20135;-81
2024/01/25 12:46:09;;;;;;;0.10;0.10;;;;;;;;;;5108261;28;20080;-81
2024/01/25 12:48:54;;;;;;;0.20;0.20;;;;;;;;;;5107090;27;20088;-81
2024/01/25 12:51:21;;;;;;;0.20;0.20;;;;;;;;;;5100704;27;20167;-81
2024/01/25 12:53:49;;;;;;;0.10;0.10;;;;;;;;;;5098923;28;20510;-81
2024/01/25 12:56:16;;;;;;;0.10;0.10;;;;;;;;;;5098881;27;20071;-81
2024/01/25 12:58:42;;;;;;;0.10;0.10;;;;;;;;;;5103386;28;20193;-82
2024/01/25 13:01:10;;;;;;;0.28;0.28;;;;;;;;;;5106933;27;20044;-81
2024/01/25 13:03:37;;;;;;;1.45;1.45;;;;;;;;;;5107543;28;20060;-81
2024/01/25 13:06:05;;;;;;;0.25;0.25;;;;;;;;;;5100947;28;20084;-81
2024/01/25 13:08:32;;;;;;;0.10;0.10;;;;;;;;;;5098329;28;20044;-81
2024/01/25 13:10:58;;;;;;;0.10;0.10;;;;;;;;;;5102486;27;20052;-81
2024/01/25 13:13:25;;;;;;;0.10;0.10;;;;;;;;;;5100786;27;20082;-81
2024/01/25 13:15:52;;;;;;;0.20;0.20;;;;;;;;;;5094293;28;20090;-82
2024/01/25 13:18:18;;;;;;;0.17;0.17;;;;;;;;;;5105971;28;20063;-81
2024/01/25 13:20:45;;;;;;;0.20;0.20;;;;;;;;;;5099992;28;20052;-81
2024/01/25 13:23:11;;;;;;;0.13;0.13;;;;;;;;;;5095145;28;20043;-81
2024/01/25 13:25:38;;;;;;;0.47;0.47;;;;;;;;;;5093648;28;20057;-82
2024/01/25 13:28:04;;;;;;;0.45;0.45;;;;;;;;;;5096964;27;20049;-82
2024/01/25 13:30:31;;;;;;;2.10;1.15;;;;;;;;;;5096044;28;20097;-82
2024/01/25 13:32:57;;;;;;;0.20;0.20;;;;;;;;;;5103653;28;20525;-81
2024/01/25 13:35:24;;;;;;;0.10;0.10;;;;;;;;;;5098700;27;20102;-82
2024/01/25 13:37:50;;;;;;;0.10;0.10;;;;;;;;;;5090047;28;20053;-81
2024/01/25 13:40:19;;;;;;;0.30;0.30;;;;;;;;;;5098832;28;20118;-79
2024/01/25 13:42:46;;;;;;;0.10;0.10;;;;;;;;;;5096682;28;20056;-79
2024/01/25 13:45:13;;;;;;;0.10;0.10;;;;;;;;;;5103819;28;20150;-79
2024/01/25 13:47:40;;;;;;;0.10;0.10;;;;;;;;;;5111458;28;20087;-79
2024/01/25 13:50:06;;;;;;;0.20;0.20;;;;;;;;;;5108127;28;20138;-79
2024/01/25 13:52:32;;;;;;;0.60;0.60;;;;;;;;;;5101553;27;20495;-79
2024/01/25 13:54:59;;;;;;;0.10;0.10;;;;;;;;;;5098892;28;20044;-79
2024/01/25 13:57:25;;;;;;;0.98;0.98;;;;;;;;;;5104597;28;20068;-79
2024/01/25 13:59:52;;;;;;;0.10;0.10;;;;;;;;;;5097273;28;20095;-79
2024/01/25 14:02:18;;;;;;;0.10;0.10;;;;;;;;;;5095795;28;20056;-79
2024/01/25 14:04:45;;;;;;;0.10;0.10;;;;;;;;;;5098317;28;20092;-79
2024/01/25 14:07:13;;;;;;;0.10;0.10;;;;;;;;;;5104097;28;20060;-79
2024/01/25 14:09:40;;;;;;;0.10;0.10;;;;;;;;;;5111621;28;20056;-79
2024/01/25 14:12:07;;;;;;;0.10;0.10;;;;;;;;;;5110329;27;20587;-79
2024/01/25 14:14:36;;;;;;;0.10;0.10;;;;;;;;;;5111605;28;20058;-79
2024/01/25 14:17:02;;;;;;;0.10;0.10;;;;;;;;;;5099162;28;20051;-79
2024/01/25 14:19:29;;;;;;;0.30;0.30;;;;;;;;;;5095796;28;20061;-79
2024/01/25 14:21:55;;;;;;;0.10;0.10;;;;;;;;;;5095605;28;20060;-79
2024/01/25 14:24:41;;;;;;;0.10;0.10;;;;;;;;;;5092069;28;20049;-79
2024/01/25 14:27:07;;;;;;;0.10;0.10;;;;;;;;;;5092012;28;20061;-79
2024/01/25 14:29:34;;;;;;;0.10;0.10;;;;;;;;;;5091549;28;20526;-79
2024/01/25 14:32:01;;;;;;;0.45;0.40;;;;;;;;;;5092783;28;20083;-79
2024/01/25 14:34:27;;;;;;;0.10;0.10;;;;;;;;;;5112050;28;20515;-79
2024/01/25 14:36:54;;;;;;;0.10;0.10;;;;;;;;;;5112049;28;20063;-79
2024/01/25 14:39:21;;;;;;;0.17;0.17;;;;;;;;;;5170199;22;20049;-80
2024/01/25 14:41:47;;;;;;;0.10;0.10;;;;;;;;;;5074596;28;20051;-80